createdAt,value
2022-11-21T00:00:56.272Z,9.96
2022-11-21T00:03:24.380Z,10.23
2022-11-21T00:05:51.053Z,9.94
2022-11-21T00:08:20.511Z,9.77
2022-11-21T00:10:47.531Z,10.01
2022-11-21T00:13:23.091Z,10.08
2022-11-21T00:15:49.600Z,9.87
2022-11-21T00:18:16.391Z,9.82
2022-11-21T00:20:43.772Z,10.53
2022-11-21T00:23:10.944Z,9.57
2022-11-21T00:25:38.809Z,10.15
2022-11-21T00:28:06.054Z,10.28
2022-11-21T00:30:32.735Z,9.96
2022-11-21T00:32:59.425Z,10.35
2022-11-21T00:35:25.972Z,10.60
2022-11-21T00:37:52.512Z,10.56
2022-11-21T00:40:19.343Z,10.52
2022-11-21T00:42:45.856Z,10.73
2022-11-21T00:45:12.473Z,10.68
2022-11-21T00:47:38.996Z,10.75
2022-11-21T00:50:05.898Z,10.56
2022-11-21T00:52:32.447Z,10.83
2022-11-21T00:54:59.061Z,10.80
2022-11-21T00:57:25.583Z,10.64
2022-11-21T00:59:52.088Z,10.92
2022-11-21T01:02:18.584Z,10.61
2022-11-21T01:04:45.081Z,10.94
2022-11-21T01:07:14.097Z,10.76
2022-11-21T01:09:40.666Z,10.94
2022-11-21T01:12:07.303Z,10.46
2022-11-21T01:14:33.854Z,10.50
2022-11-21T01:17:00.426Z,10.93
2022-11-21T01:19:27.027Z,10.22
2022-11-21T01:21:53.511Z,10.99
2022-11-21T01:24:20.233Z,10.76
2022-11-21T01:26:49.035Z,11.27
2022-11-21T01:29:16.797Z,10.99
2022-11-21T01:31:43.300Z,11.48
2022-11-21T01:34:09.843Z,11.36
2022-11-21T01:36:36.375Z,11.39
2022-11-21T01:39:05.533Z,11.29
2022-11-21T01:41:38.260Z,11.53
2022-11-21T01:44:10.450Z,11.46
2022-11-21T01:46:37.017Z,10.92
2022-11-21T01:49:09.708Z,11.16
2022-11-21T01:51:48.217Z,10.60
2022-11-21T01:54:26.772Z,10.69
2022-11-21T01:56:56.984Z,10.84
2022-11-21T01:59:30.906Z,10.25
2022-11-21T02:01:59.981Z,10.86
2022-11-21T02:04:30.729Z,10.84
2022-11-21T02:06:58.954Z,10.37
2022-11-21T02:09:26.239Z,10.99
2022-11-21T02:11:58.380Z,10.80
2022-11-21T02:14:26.372Z,10.61
2022-11-21T02:16:56.879Z,10.75
2022-11-21T02:19:37.919Z,10.97
2022-11-21T02:22:14.816Z,10.95
2022-11-21T02:25:12.594Z,10.81
2022-11-21T02:27:39.208Z,10.65
2022-11-21T02:30:08.715Z,10.55
2022-11-21T02:32:41.206Z,10.92
2022-11-21T02:35:08.908Z,10.46
2022-11-21T02:37:37.009Z,10.13
2022-11-21T02:40:09.254Z,11.16
2022-11-21T02:42:52.359Z,10.71
2022-11-21T02:45:21.527Z,10.36
2022-11-21T02:47:51.284Z,10.88
2022-11-21T02:50:27.960Z,11.27
2022-11-21T02:52:55.912Z,11.15
2022-11-21T02:55:23.268Z,10.90
2022-11-21T02:57:50.099Z,10.67
2022-11-21T03:00:17.406Z,10.51
2022-11-21T03:02:43.902Z,11.48
2022-11-21T03:05:12.764Z,11.42
2022-11-21T03:07:39.495Z,11.80
2022-11-21T03:10:06.379Z,11.52
2022-11-21T03:12:32.881Z,11.20
2022-11-21T03:14:59.389Z,11.58
2022-11-21T03:17:25.895Z,11.52
2022-11-21T03:19:52.423Z,11.11
2022-11-21T03:22:18.916Z,11.41
2022-11-21T03:24:45.439Z,11.41
2022-11-21T03:27:11.932Z,11.17
2022-11-21T03:29:38.453Z,11.10
2022-11-21T03:32:05.164Z,11.67
2022-11-21T03:34:31.871Z,11.30
2022-11-21T03:36:58.397Z,11.16
2022-11-21T03:39:24.891Z,10.57
2022-11-21T03:41:51.413Z,10.64
2022-11-21T03:44:17.944Z,10.76
2022-11-21T03:46:46.302Z,11.17
2022-11-21T03:49:14.201Z,10.68
2022-11-21T03:51:40.772Z,11.39
2022-11-21T03:54:07.623Z,11.26
2022-11-21T03:56:34.832Z,11.37
2022-11-21T03:59:01.840Z,11.47
2022-11-21T04:01:32.428Z,10.96
2022-11-21T04:04:01.813Z,11.39
2022-11-21T04:06:30.977Z,11.72
2022-11-21T04:08:57.659Z,11.28
2022-11-21T04:11:24.564Z,11.28
2022-11-21T04:13:52.068Z,11.51
2022-11-21T04:16:18.615Z,11.47
2022-11-21T04:18:45.202Z,11.48
2022-11-21T04:21:11.692Z,11.30
2022-11-21T04:23:38.225Z,10.98
2022-11-21T04:26:04.814Z,10.95
2022-11-21T04:28:31.722Z,10.56
2022-11-21T04:31:11.192Z,11.14
2022-11-21T04:33:39.474Z,11.60
2022-11-21T04:36:07.571Z,11.81
2022-11-21T04:38:34.135Z,10.52
2022-11-21T04:41:00.694Z,10.71
2022-11-21T04:43:27.197Z,11.04
2022-11-21T04:45:53.743Z,11.10
2022-11-21T04:48:20.284Z,11.24
2022-11-21T04:50:46.830Z,10.78
2022-11-21T04:53:13.498Z,10.57
2022-11-21T04:55:40.244Z,11.23
2022-11-21T04:58:06.751Z,11.28
2022-11-21T05:00:33.255Z,10.87
2022-11-21T05:03:04.989Z,10.42
2022-11-21T05:05:32.094Z,10.60
2022-11-21T05:07:58.611Z,10.70
2022-11-21T05:10:25.346Z,10.84
2022-11-21T05:13:18.238Z,10.72
2022-11-21T05:15:45.513Z,10.51
2022-11-21T05:18:12.078Z,10.48
2022-11-21T05:20:38.689Z,10.93
2022-11-21T05:23:05.288Z,10.78
2022-11-21T05:25:31.842Z,10.41
2022-11-21T05:27:58.484Z,9.85
2022-11-21T05:30:25.123Z,10.06
2022-11-21T05:32:51.665Z,10.20
2022-11-21T05:35:18.157Z,10.46
2022-11-21T05:37:44.668Z,10.37
2022-11-21T05:40:11.471Z,10.47
2022-11-21T05:43:01.107Z,10.67
2022-11-21T05:45:27.664Z,10.32
2022-11-21T05:47:54.172Z,10.41
2022-11-21T05:50:20.683Z,9.90
2022-11-21T05:52:47.185Z,10.11
2022-11-21T05:55:13.831Z,10.40
2022-11-21T05:57:40.360Z,10.36
2022-11-21T06:00:07.497Z,10.37
2022-11-21T06:02:52.731Z,10.25
2022-11-21T06:05:19.301Z,10.55
2022-11-21T06:07:46.002Z,10.80
2022-11-21T06:10:12.557Z,11.18
2022-11-21T06:12:39.075Z,11.06
2022-11-21T06:15:05.888Z,11.31
2022-11-21T06:17:32.454Z,11.09
2022-11-21T06:19:58.991Z,11.42
2022-11-21T06:22:25.521Z,11.42
2022-11-21T06:24:52.287Z,11.34
2022-11-21T06:27:18.844Z,10.61
2022-11-21T06:29:45.360Z,11.18
2022-11-21T06:32:11.903Z,10.91
2022-11-21T06:34:38.439Z,11.18
2022-11-21T06:37:05.156Z,11.41
2022-11-21T06:39:31.654Z,11.21
2022-11-21T06:41:58.928Z,11.32
2022-11-21T06:44:25.739Z,11.36
2022-11-21T06:46:52.430Z,11.64
2022-11-21T06:49:19.271Z,11.47
2022-11-21T06:51:45.891Z,11.56
2022-11-21T06:54:16.545Z,11.24
2022-11-21T06:56:55.517Z,11.12
2022-11-21T06:59:22.103Z,11.49
2022-11-21T07:01:48.697Z,11.48
2022-11-21T07:04:15.289Z,11.76
2022-11-21T07:06:41.816Z,10.62
2022-11-21T07:09:32.161Z,10.91
2022-11-21T07:11:54.871Z,11.12
2022-11-21T07:14:21.375Z,11.20
2022-11-21T07:16:47.856Z,10.53
2022-11-21T07:19:14.374Z,10.92
2022-11-21T07:21:42.974Z,11.42
2022-11-21T07:24:09.496Z,11.24
2022-11-21T07:26:36.002Z,11.41
2022-11-21T07:29:02.595Z,11.37
2022-11-21T07:31:29.109Z,11.66
2022-11-21T07:33:55.722Z,11.58
2022-11-21T07:36:22.250Z,11.64
2022-11-21T07:38:48.774Z,11.17
2022-11-21T07:41:15.328Z,11.05
2022-11-21T07:43:41.839Z,11.07
2022-11-21T07:46:08.404Z,9.95
2022-11-21T07:48:34.932Z,10.18
2022-11-21T07:51:04.816Z,10.24
2022-11-21T07:53:31.381Z,10.90
2022-11-21T07:55:59.585Z,10.68
2022-11-21T07:58:26.442Z,10.33
2022-11-21T08:00:53.693Z,11.01
2022-11-21T08:03:20.393Z,10.86
2022-11-21T08:05:47.418Z,11.37
2022-11-21T08:08:14.316Z,11.11
2022-11-21T08:10:43.355Z,10.88
2022-11-21T08:13:10.094Z,10.82
2022-11-21T08:15:37.433Z,11.55
2022-11-21T08:18:11.718Z,11.59
2022-11-21T08:20:38.648Z,11.35
2022-11-21T08:23:06.054Z,11.75
2022-11-21T08:25:34.324Z,11.92
2022-11-21T08:28:02.664Z,11.67
2022-11-21T08:30:29.723Z,11.90
2022-11-21T08:32:58.707Z,11.82
2022-11-21T08:35:26.162Z,11.57
2022-11-21T08:38:00.067Z,11.15
2022-11-21T08:40:27.294Z,11.81
2022-11-21T08:43:08.332Z,11.67
2022-11-21T08:45:36.337Z,11.88
2022-11-21T08:48:03.573Z,12.30
2022-11-21T08:50:30.289Z,12.05
2022-11-21T08:53:04.072Z,12.50
2022-11-21T08:55:30.927Z,12.26
2022-11-21T08:57:57.652Z,11.75
2022-11-21T09:00:24.478Z,12.75
2022-11-21T09:02:51.092Z,12.86
2022-11-21T09:05:17.670Z,12.58
2022-11-21T09:07:44.398Z,12.31
2022-11-21T09:10:10.907Z,11.95
2022-11-21T09:12:37.512Z,12.27
2022-11-21T09:15:23.418Z,12.22
2022-11-21T09:18:05.334Z,12.61
2022-11-21T09:20:34.061Z,12.86
2022-11-21T09:23:08.910Z,13.34
2022-11-21T09:25:35.508Z,13.12
2022-11-21T09:28:03.352Z,13.47
2022-11-21T09:30:29.924Z,13.19
2022-11-21T09:33:09.659Z,12.96
2022-11-21T09:35:36.372Z,13.34
2022-11-21T09:38:03.395Z,13.18
2022-11-21T09:40:30.903Z,13.34
2022-11-21T09:43:10.801Z,13.84
2022-11-21T09:45:43.772Z,13.47
2022-11-21T09:48:19.167Z,13.44
2022-11-21T09:50:54.396Z,13.97
2022-11-21T09:53:28.276Z,13.62
2022-11-21T09:56:17.208Z,13.15
2022-11-21T09:59:23.968Z,12.43
2022-11-21T10:01:51.215Z,13.07
2022-11-21T10:04:18.209Z,14.14
2022-11-21T10:07:04.628Z,14.14
2022-11-21T10:09:49.633Z,14.59
2022-11-21T10:12:39.874Z,14.30
2022-11-21T10:15:27.568Z,14.73
2022-11-21T10:18:17.033Z,13.77
2022-11-21T10:21:11.354Z,14.51
2022-11-21T10:23:53.046Z,14.54
2022-11-21T10:26:36.281Z,14.80
2022-11-21T10:29:18.004Z,14.45
2022-11-21T10:31:45.526Z,14.58
2022-11-21T10:34:18.762Z,14.58
2022-11-21T10:36:50.591Z,14.20
2022-11-21T10:39:34.355Z,14.60
2022-11-21T10:42:12.224Z,14.71
2022-11-21T10:44:57.628Z,14.24
2022-11-21T10:47:33.220Z,14.97
2022-11-21T10:50:10.007Z,15.02
2022-11-21T10:52:46.026Z,14.70
2022-11-21T10:55:14.651Z,14.63
2022-11-21T10:57:50.351Z,15.62
2022-11-21T11:00:25.153Z,16.38
2022-11-21T11:02:55.090Z,15.79
2022-11-21T11:05:24.346Z,15.83
2022-11-21T11:08:04.185Z,17.51
2022-11-21T11:10:32.979Z,18.65
2022-11-21T11:13:44.404Z,19.33
2022-11-21T11:16:10.649Z,18.10
2022-11-21T11:18:47.742Z,16.69
2022-11-21T11:21:20.544Z,16.16
2022-11-21T11:23:49.719Z,15.91
2022-11-21T11:26:29.422Z,15.67
2022-11-21T11:29:18.215Z,14.93
2022-11-21T11:32:01.180Z,14.95
2022-11-21T11:34:40.113Z,14.82
2022-11-21T11:37:20.409Z,14.80
2022-11-21T11:40:02.729Z,14.80
2022-11-21T11:43:07.455Z,14.94
2022-11-21T11:46:11.984Z,15.00
2022-11-21T11:49:03.780Z,15.04
2022-11-21T11:51:59.271Z,15.32
2022-11-21T11:54:38.787Z,14.75
2022-11-21T11:57:05.437Z,14.94
2022-11-21T11:59:41.271Z,14.67
2022-11-21T12:02:33.594Z,14.69
2022-11-21T12:05:09.174Z,15.04
2022-11-21T12:08:38.830Z,14.97
2022-11-21T12:10:58.131Z,14.82
2022-11-21T12:13:27.704Z,15.95
2022-11-21T12:16:04.091Z,15.97
2022-11-21T12:19:08.263Z,17.15
2022-11-21T12:21:34.858Z,17.93
2022-11-21T12:24:03.654Z,18.28
2022-11-21T12:26:59.125Z,20.69
2022-11-21T12:29:43.954Z,20.58
2022-11-21T12:32:55.533Z,21.84
2022-11-21T12:35:34.121Z,23.05
2022-11-21T12:38:32.131Z,22.49
2022-11-21T12:41:39.364Z,24.26
2022-11-21T12:44:36.468Z,25.90
2022-11-21T12:47:11.990Z,25.77
2022-11-21T12:50:12.989Z,26.69
2022-11-21T12:53:08.504Z,24.80
2022-11-21T12:55:42.291Z,23.74
2022-11-21T12:58:28.631Z,22.23
2022-11-21T13:01:38.889Z,21.59
2022-11-21T13:04:21.368Z,20.42
2022-11-21T13:06:49.412Z,19.30
2022-11-21T13:09:20.394Z,19.20
2022-11-21T13:11:59.765Z,18.73
2022-11-21T13:14:36.419Z,18.37
2022-11-21T13:17:16.356Z,17.79
2022-11-21T13:19:49.024Z,17.80
2022-11-21T13:22:37.114Z,18.06
2022-11-21T13:25:18.988Z,16.76
2022-11-21T13:27:49.860Z,17.35
2022-11-21T13:30:19.211Z,17.49
2022-11-21T13:32:54.862Z,16.82
2022-11-21T13:35:22.149Z,16.42
2022-11-21T13:37:50.515Z,16.01
2022-11-21T13:40:30.138Z,15.57
2022-11-21T13:43:31.981Z,16.15
2022-11-21T13:45:58.801Z,16.33
2022-11-21T13:48:52.401Z,16.51
2022-11-21T13:51:46.473Z,16.29
2022-11-21T13:54:40.976Z,15.88
2022-11-21T13:57:25.775Z,16.31
2022-11-21T14:00:21.480Z,16.35
2022-11-21T14:03:03.221Z,15.63
2022-11-21T14:05:38.648Z,15.65
2022-11-21T14:08:20.372Z,15.38
2022-11-21T14:10:51.175Z,15.29
2022-11-21T14:13:31.645Z,14.99
2022-11-21T14:16:27.045Z,15.10
2022-11-21T14:18:58.101Z,15.29
2022-11-21T14:21:30.920Z,14.87
2022-11-21T14:24:04.180Z,14.68
2022-11-21T14:26:40.445Z,15.15
2022-11-21T14:29:22.601Z,15.32
2022-11-21T14:31:50.046Z,15.67
2022-11-21T14:34:33.074Z,16.33
2022-11-21T14:37:02.772Z,16.74
2022-11-21T14:39:38.743Z,16.82
2022-11-21T14:42:14.926Z,17.05
2022-11-21T14:44:41.927Z,17.14
2022-11-21T14:47:24.670Z,16.90
2022-11-21T14:49:59.758Z,16.63
2022-11-21T14:52:32.973Z,16.88
2022-11-21T14:57:48.396Z,16.64
2022-11-21T15:03:16.066Z,16.05
2022-11-21T15:11:17.883Z,15.18
2022-11-21T15:14:14.456Z,15.06
2022-11-21T15:16:35.805Z,14.88
2022-11-21T15:19:09.415Z,14.79
2022-11-21T15:21:36.111Z,14.62
2022-11-21T15:24:29.440Z,14.47
2022-11-21T15:26:56.449Z,14.35
2022-11-21T15:29:23.332Z,14.28
2022-11-21T15:32:14.039Z,14.21
2022-11-21T15:34:42.952Z,14.05
2022-11-21T15:37:16.352Z,13.94
2022-11-21T15:39:45.753Z,13.86
2022-11-21T15:42:33.687Z,13.84
2022-11-21T15:45:20.379Z,13.67
2022-11-21T15:47:47.568Z,13.56
2022-11-21T15:50:14.976Z,13.48
2022-11-21T15:52:48.256Z,13.44
2022-11-21T15:55:28.148Z,13.44
2022-11-21T15:57:54.676Z,13.36
2022-11-21T16:00:21.265Z,13.32
2022-11-21T16:02:47.786Z,13.26
2022-11-21T16:05:15.306Z,13.18
2022-11-21T16:07:42.275Z,13.14
2022-11-21T16:10:16.517Z,13.01
2022-11-21T16:12:44.686Z,12.92
2022-11-21T16:15:11.209Z,12.84
2022-11-21T16:17:39.271Z,12.80
2022-11-21T16:20:06.188Z,12.78
2022-11-21T16:22:32.758Z,12.73
2022-11-21T16:24:59.379Z,12.72
2022-11-21T16:27:25.919Z,12.60
2022-11-21T16:29:52.443Z,12.58
2022-11-21T16:32:19.017Z,12.48
2022-11-21T16:34:45.548Z,12.48
2022-11-21T16:37:12.065Z,12.39
2022-11-21T16:39:38.560Z,12.33
2022-11-21T16:42:05.099Z,12.34
2022-11-21T16:44:31.604Z,12.25
2022-11-21T16:47:01.139Z,12.20
2022-11-21T16:49:30.457Z,12.23
2022-11-21T16:51:58.910Z,12.24
2022-11-21T16:54:28.295Z,12.14
2022-11-21T16:56:54.855Z,12.09
2022-11-21T16:59:21.360Z,12.08
2022-11-21T17:01:47.972Z,12.10
2022-11-21T17:04:17.392Z,12.06
2022-11-21T17:06:44.396Z,12.02
2022-11-21T17:09:11.012Z,12.07
2022-11-21T17:11:37.550Z,12.01
2022-11-21T17:14:06.221Z,11.91
2022-11-21T17:16:34.349Z,11.91
2022-11-21T17:19:02.146Z,11.92
2022-11-21T17:21:29.294Z,11.87
2022-11-21T17:23:56.100Z,11.85
2022-11-21T17:26:24.767Z,11.81
2022-11-21T17:28:59.190Z,11.66
2022-11-21T17:31:26.456Z,11.75
2022-11-21T17:33:54.598Z,11.65
2022-11-21T17:36:23.800Z,11.65
2022-11-21T17:38:51.631Z,11.60
2022-11-21T17:41:20.166Z,11.65
2022-11-21T17:43:48.263Z,11.61
2022-11-21T17:46:17.344Z,11.57
2022-11-21T17:48:48.495Z,11.57
2022-11-21T17:51:23.604Z,11.45
2022-11-21T17:53:51.445Z,11.45
2022-11-21T17:56:23.891Z,11.44
2022-11-21T17:58:51.815Z,11.43
2022-11-21T18:01:19.667Z,11.38
2022-11-21T18:03:48.748Z,11.42
2022-11-21T18:06:17.082Z,11.38
2022-11-21T18:08:45.396Z,11.31
2022-11-21T18:11:14.096Z,11.41
2022-11-21T18:13:40.868Z,11.38
2022-11-21T18:16:13.002Z,11.43
2022-11-21T18:18:39.961Z,11.26
2022-11-21T18:21:15.501Z,11.24
2022-11-21T18:23:43.768Z,11.31
2022-11-21T18:26:16.619Z,11.15
2022-11-21T18:28:43.483Z,11.15
2022-11-21T18:31:12.812Z,11.15
2022-11-21T18:33:40.311Z,11.14
2022-11-21T18:36:08.757Z,10.99
2022-11-21T18:39:00.508Z,11.03
2022-11-21T18:41:30.744Z,10.72
2022-11-21T18:43:59.288Z,10.71
2022-11-21T18:46:28.373Z,10.59
2022-11-21T18:49:04.252Z,10.60
2022-11-21T18:51:33.015Z,10.59
2022-11-21T18:54:07.146Z,10.52
2022-11-21T18:56:35.068Z,10.47
2022-11-21T18:59:03.241Z,10.47
2022-11-21T19:01:29.920Z,10.50
2022-11-21T19:03:56.786Z,10.41
2022-11-21T19:06:25.035Z,10.49
2022-11-21T19:08:53.577Z,10.43
2022-11-21T19:11:21.619Z,10.46
2022-11-21T19:13:48.830Z,10.43
2022-11-21T19:16:18.440Z,10.25
2022-11-21T19:18:59.914Z,10.29
2022-11-21T19:21:35.877Z,10.18
2022-11-21T19:24:02.517Z,10.15
2022-11-21T19:26:31.519Z,10.21
2022-11-21T19:28:58.814Z,10.13
2022-11-21T19:31:25.510Z,10.12
2022-11-21T19:33:52.398Z,10.13
2022-11-21T19:36:21.308Z,10.13
2022-11-21T19:38:50.936Z,10.16
2022-11-21T19:41:21.797Z,10.17
2022-11-21T19:43:53.990Z,10.11
2022-11-21T19:46:26.580Z,10.08
2022-11-21T19:48:55.123Z,10.02
2022-11-21T19:51:23.658Z,10.14
2022-11-21T19:53:50.377Z,10.16
2022-11-21T19:56:21.366Z,10.13
2022-11-21T19:58:48.872Z,10.19
2022-11-21T20:01:20.474Z,10.25
2022-11-21T20:03:49.263Z,10.23
2022-11-21T20:06:28.092Z,10.25
2022-11-21T20:09:04.190Z,10.25
2022-11-21T20:11:31.899Z,10.23
2022-11-21T20:13:59.027Z,10.29
2022-11-21T20:16:31.555Z,10.23
2022-11-21T20:19:00.691Z,10.27
2022-11-21T20:21:28.064Z,10.20
2022-11-21T20:23:55.236Z,10.26
2022-11-21T20:26:22.705Z,10.14
2022-11-21T20:28:49.557Z,10.18
2022-11-21T20:31:18.987Z,10.17
2022-11-21T20:33:51.725Z,10.07
2022-11-21T20:36:26.249Z,10.10
2022-11-21T20:39:14.292Z,10.00
2022-11-21T20:41:41.446Z,10.01
2022-11-21T20:47:04.956Z,9.94
2022-11-21T20:49:31.981Z,9.77
2022-11-21T20:54:45.314Z,9.99
2022-11-21T20:57:15.180Z,9.99
2022-11-21T20:59:42.259Z,9.98
2022-11-21T21:02:11.793Z,9.99
2022-11-21T21:04:38.608Z,9.96
2022-11-21T21:07:05.183Z,9.99
2022-11-21T21:09:31.909Z,10.04
2022-11-21T21:11:58.564Z,10.05
2022-11-21T21:14:25.084Z,10.07
2022-11-21T21:16:51.652Z,9.96
2022-11-21T21:19:18.433Z,10.03
2022-11-21T21:21:44.987Z,10.13
2022-11-21T21:24:12.383Z,10.17
2022-11-21T21:26:43.318Z,10.15
2022-11-21T21:29:16.178Z,10.23
2022-11-21T21:31:50.128Z,10.26
2022-11-21T21:34:17.633Z,9.99
2022-11-21T21:36:44.233Z,10.05
2022-11-21T21:39:10.777Z,10.03
2022-11-21T21:41:39.860Z,9.91
2022-11-21T21:44:06.667Z,10.08
2022-11-21T21:46:33.240Z,9.93
2022-11-21T21:48:59.856Z,10.25
2022-11-21T21:51:31.126Z,10.36
2022-11-21T21:53:58.887Z,10.42
2022-11-21T21:56:27.388Z,10.42
2022-11-21T21:58:54.163Z,10.42
2022-11-21T22:01:26.536Z,10.27
2022-11-21T22:03:58.311Z,10.36
2022-11-21T22:06:25.575Z,10.44
2022-11-21T22:08:53.612Z,10.49
2022-11-21T22:11:22.534Z,10.38
2022-11-21T22:13:58.301Z,10.40
2022-11-21T22:16:25.372Z,10.39
2022-11-21T22:18:53.081Z,10.39
2022-11-21T22:21:25.423Z,10.32
2022-11-21T22:26:38.765Z,10.42
2022-11-21T22:29:05.493Z,10.40
2022-11-21T22:31:33.099Z,10.47
2022-11-21T22:34:00.628Z,10.43
2022-11-21T22:36:27.248Z,10.35
2022-11-21T22:38:54.718Z,10.42
2022-11-21T22:41:23.717Z,10.32
2022-11-21T22:43:55.452Z,10.29
2022-11-21T22:46:22.850Z,10.25
2022-11-21T22:48:49.807Z,10.13
2022-11-21T22:51:20.153Z,10.13
2022-11-21T22:53:47.426Z,9.73
2022-11-21T22:56:16.589Z,9.89
2022-11-21T22:58:43.572Z,9.76
2022-11-21T23:01:15.745Z,10.02
2022-11-21T23:03:43.580Z,10.18
2022-11-21T23:06:18.637Z,10.26
2022-11-21T23:08:45.736Z,10.24
2022-11-21T23:11:13.539Z,10.32
2022-11-21T23:13:42.709Z,10.40
2022-11-21T23:16:10.383Z,10.40
2022-11-21T23:18:37.181Z,10.36
2022-11-21T23:21:04.468Z,10.37
2022-11-21T23:23:31.634Z,10.36
2022-11-21T23:25:58.568Z,10.48
2022-11-21T23:28:25.088Z,10.46
2022-11-21T23:30:51.776Z,10.43
2022-11-21T23:33:18.408Z,10.42
2022-11-21T23:35:46.391Z,10.45
2022-11-21T23:38:14.617Z,10.42
2022-11-21T23:40:41.419Z,10.40
2022-11-21T23:43:07.939Z,10.49
2022-11-21T23:45:34.550Z,10.64
2022-11-21T23:48:01.052Z,10.80
2022-11-21T23:50:27.581Z,10.73
2022-11-21T23:52:54.105Z,10.69
2022-11-21T23:55:20.788Z,10.79
2022-11-21T23:57:48.315Z,10.73
